»·PEaware :: N143VT KGEG-KSEA

N143VT :: KGEG-KSEA

FLIGHT INFORMATION

Flight Status: Arrived
Operator: Privately registered:
United States
More flights under this callsign
Pilot: Anonymous 16492 (16492)
Aircraft: ECLIPSE 500
(EA50)
More flights by this aircraft type
Origin: KGEG Spokane Intl
United States
Destination: KSEA Seattle-Tacoma Intl
United States
More flights between these airports :: More routes between these airports
Route: +GEG3 TEMPL GLASR1
File this flight plan on PilotEdge
Remarks:
Altitude:
(Current/Filed)
22,000ft
Speed:
(Current/Filed)
330kts
Departed: 28-Jun-18 04:46 PM
Arrived: 28-Jun-18 05:40 PM
Distance/Time
Traveled:
193nm/0:54
Distance/Time
To Go:
Arrived

Flight Plot

Page will automatically refresh every two minutes.

Flight plan parsing failed; only flown route is shown


Map Options




Map Legend


Flown Route
Filed Route
Departure Airport
Arrival Airport
Navaid (VOR, NDB)
Fix

Horizontal Profiles

Position Reports

Time Latitude Longitude Heading Altitude Ground
Speed
28-Jun-18 16:27 47.623506 -117.524468 269 2387ft 0kts
28-Jun-18 16:29 47.623506 -117.524468 269 2387ft 0kts
28-Jun-18 16:30 47.623506 -117.524468 269 2387ft 0kts
28-Jun-18 16:30 47.623506 -117.524468 269 2387ft 0kts
28-Jun-18 16:31 47.623506 -117.524468 269 2387ft 0kts
28-Jun-18 16:32 47.623506 -117.524468 269 2387ft 0kts
28-Jun-18 16:33 47.623506 -117.524468 269 2387ft 0kts
28-Jun-18 16:34 47.623506 -117.524468 269 2387ft 0kts
28-Jun-18 16:35 47.623506 -117.524468 269 2387ft 0kts
28-Jun-18 16:36 47.623506 -117.524468 269 2387ft 0kts
28-Jun-18 16:37 47.623506 -117.524468 269 2387ft 0kts
28-Jun-18 16:38 47.623506 -117.524468 269 2387ft 0kts
28-Jun-18 16:39 47.623506 -117.524468 269 2387ft 0kts
28-Jun-18 16:40 47.623506 -117.524468 269 2387ft 0kts
28-Jun-18 16:41 47.623771 -117.525023 301 2387ft 7kts
28-Jun-18 16:42 47.620140 -117.530754 177 2387ft 25kts
28-Jun-18 16:43 47.617903 -117.527495 90 2387ft 13kts
28-Jun-18 16:44 47.617727 -117.520342 139 2387ft 12kts
28-Jun-18 16:45 47.617607 -117.520241 159 2387ft 2kts
28-Jun-18 16:46 47.616782 -117.524860 268 2387ft 64kts
28-Jun-18 16:47 47.604443 -117.569206 219 3442ft 147kts
28-Jun-18 16:48 47.569549 -117.608687 218 4954ft 164kts
28-Jun-18 16:49 47.563694 -117.670531 276 6519ft 169kts
28-Jun-18 16:50 47.570554 -117.739839 276 8572ft 175kts
28-Jun-18 16:51 47.577626 -117.811549 277 10898ft 181kts
28-Jun-18 16:52 47.584969 -117.886222 277 13065ft 187kts
28-Jun-18 16:53 47.592421 -117.962469 277 15074ft 192kts
28-Jun-18 16:54 47.600045 -118.041116 277 16954ft 197kts
28-Jun-18 16:55 47.607829 -118.122079 276 18699ft 202kts
28-Jun-18 16:56 47.615691 -118.204497 276 20310ft 206kts
28-Jun-18 16:57 47.623718 -118.289341 276 21821ft 211kts
28-Jun-18 16:58 47.632829 -118.386783 276 21977ft 270kts
28-Jun-18 16:59 47.643903 -118.506084 277 21957ft 314kts
28-Jun-18 17:00 47.656145 -118.639539 277 21944ft 340kts
28-Jun-18 17:01 47.668189 -118.772563 276 21946ft 332kts
28-Jun-18 17:02 47.680270 -118.908621 277 21945ft 334kts
28-Jun-18 17:03 47.692325 -119.045759 278 21944ft 338kts
28-Jun-18 17:04 47.704266 -119.182596 278 21939ft 337kts
28-Jun-18 17:05 47.715907 -119.318405 278 21934ft 337kts
28-Jun-18 17:06 47.727080 -119.450780 278 21934ft 337kts
28-Jun-18 17:07 47.738184 -119.588242 278 21934ft 337kts
28-Jun-18 17:08 47.749075 -119.726167 277 21935ft 338kts
28-Jun-18 17:09 47.759799 -119.864187 277 21954ft 336kts
28-Jun-18 17:10 47.770297 -120.001553 277 21986ft 336kts
28-Jun-18 17:11 47.780637 -120.139067 277 21990ft 336kts
28-Jun-18 17:12 47.790803 -120.276493 277 21989ft 336kts
28-Jun-18 17:13 47.800766 -120.413493 277 21989ft 336kts
28-Jun-18 17:14 47.810472 -120.549192 277 21989ft 336kts
28-Jun-18 17:15 47.820103 -120.686198 277 21990ft 336kts
28-Jun-18 17:16 47.829554 -120.822927 277 21992ft 336kts
28-Jun-18 17:17 47.838902 -120.960660 276 21401ft 339kts
28-Jun-18 17:18 47.847746 -121.093901 277 19896ft 319kts
28-Jun-18 17:19 47.855869 -121.217890 278 18436ft 306kts
28-Jun-18 17:20 47.863200 -121.331147 278 17059ft 300kts
28-Jun-18 17:21 47.870482 -121.445750 278 15445ft 294kts
28-Jun-18 17:22 47.877535 -121.558570 278 13769ft 286kts
28-Jun-18 17:23 47.884208 -121.669606 273 12212ft 277kts
28-Jun-18 17:24 47.842351 -121.761271 228 12002ft 295kts
28-Jun-18 17:25 47.790569 -121.846931 259 11817ft 291kts
28-Jun-18 17:26 47.803651 -121.955181 285 9900ft 270kts
28-Jun-18 17:27 47.818910 -122.049533 285 8155ft 269kts
28-Jun-18 17:28 47.835247 -122.148005 285 6302ft 264kts
28-Jun-18 17:29 47.849646 -122.250742 259 4334ft 262kts
28-Jun-18 17:30 47.798933 -122.303554 201 3004ft 203kts
28-Jun-18 17:31 47.753591 -122.306073 179 2995ft 166kts
28-Jun-18 17:32 47.708917 -122.305564 180 2987ft 160kts
28-Jun-18 17:33 47.664936 -122.306282 181 2981ft 159kts
28-Jun-18 17:34 47.621025 -122.306659 181 2981ft 159kts
28-Jun-18 17:35 47.575192 -122.306983 180 2261ft 178kts
28-Jun-18 17:36 47.537146 -122.307232 180 1853ft 90kts
28-Jun-18 17:37 47.511793 -122.307417 180 1421ft 115kts
28-Jun-18 17:38 47.480122 -122.307658 180 804ft 112kts
28-Jun-18 17:39 47.451637 -122.307801 180 436ft 75kts
28-Jun-18 17:40 47.446124 -122.306448 35 436ft 0kts
28-Jun-18 17:41 47.446524 -122.306298 0 436ft 10kts
28-Jun-18 17:42 47.452948 -122.306182 0 436ft 26kts
28-Jun-18 17:43 47.457690 -122.306233 359 436ft 14kts
28-Jun-18 17:44 47.461850 -122.305280 93 436ft 13kts
28-Jun-18 17:45 47.459813 -122.304045 160 436ft 15kts
28-Jun-18 17:46 47.459180 -122.303963 267 436ft 0kts
28-Jun-18 17:47 47.459180 -122.303963 267 436ft 0kts
28-Jun-18 17:48 47.459180 -122.303963 267 436ft 0kts
28-Jun-18 17:49 47.459180 -122.303963 267 436ft 0kts
28-Jun-18 17:50 47.459180 -122.303963 267 436ft 0kts
28-Jun-18 17:51 47.459180 -122.303963 267 436ft 0kts

Navigation Log

Ident Type
Flight plan parsing failed, navigation log unavailable